Time;durP1;ratioP1;P1;durP2;ratioP2;P2;SDS_P1;SDS_P2;PMS_P1;PMS_P2;Temp;Humidity;BMP_temperature;BMP_pressure;BME280_temperature;BME280_humidity;BME280_pressure;Samples;Min_cycle;Max_cycle;Signal;HPM_P1;HPM_P2
2022/12/23 00:00:01;;;;;;;;;;;30.30;91.50;;;;;;5031475;28;19914;-69
2022/12/23 00:02:29;;;;;;;;;;;30.30;91.40;;;;;;5034924;28;19921;-68
2022/12/23 00:04:55;;;;;;;;;;;30.50;91.50;;;;;;5032421;28;20275;-69
2022/12/23 00:07:22;;;;;;;;;;;31.00;92.60;;;;;;5034535;28;20268;-68
2022/12/23 00:09:48;;;;;;;;;;;31.10;90.50;;;;;;5034764;28;19917;-67
2022/12/23 00:15:06;;;;;;;;;;;31.40;90.40;;;;;;5023953;28;20003;-69
2022/12/23 00:17:33;;;;;;;;;;;31.50;90.20;;;;;;5024940;28;19913;-70
2022/12/23 00:20:00;;;;;;;;;;;31.50;90.10;;;;;;5030390;28;19970;-69
2022/12/23 00:25:12;;;;;;;;;;;32.20;90.00;;;;;;5029465;28;19928;-69
2022/12/23 00:27:39;;;;;;;;;;;32.20;87.30;;;;;;5030690;28;19959;-69
2022/12/23 00:30:06;;;;;;;;;;;32.40;89.00;;;;;;5038239;28;20347;-70
2022/12/23 00:32:33;;;;;;;;;;;32.60;88.70;;;;;;5034413;28;20359;-69
2022/12/23 00:34:59;;;;;;;;;;;32.90;87.20;;;;;;5020798;28;19922;-68
2022/12/23 00:37:26;;;;;;;;;;;33.10;88.90;;;;;;5023708;28;19953;-68
2022/12/23 00:42:52;;;;;;;;;;;33.40;88.20;;;;;;5035944;28;19935;-68
2022/12/23 00:45:19;;;;;;;;;;;33.70;89.10;;;;;;5019271;28;19913;-68
2022/12/23 00:50:31;;;;;;;;;;;33.70;84.90;;;;;;5024941;28;19939;-68
2022/12/23 00:52:58;;;;;;;;;;;33.80;85.60;;;;;;5032015;28;19925;-67
2022/12/23 00:55:24;;;;;;;;;;;34.00;85.50;;;;;;5034316;28;19921;-69
2022/12/23 00:57:51;;;;;;;;;;;34.20;83.30;;;;;;5027999;28;19968;-68
2022/12/23 01:00:18;;;;;;;;;;;34.20;82.70;;;;;;5036822;28;19913;-68
2022/12/23 01:05:43;;;;;;;;;;;33.90;86.90;;;;;;4971566;28;19920;-68
2022/12/23 01:08:11;;;;;;;;;;;34.00;84.00;;;;;;5029976;28;19913;-69
2022/12/23 01:10:39;;;;;;;;;;;33.70;85.30;;;;;;5027804;28;19917;-67
2022/12/23 01:13:06;;;;;;;;;;;33.90;85.50;;;;;;5024989;28;19921;-68
2022/12/23 01:15:33;;;;;;;;;;;33.90;83.60;;;;;;5032658;28;19917;-68
2022/12/23 01:18:00;;;;;;;;;;;34.00;82.00;;;;;;5020514;28;19952;-69
2022/12/23 01:20:26;;;;;;;;;;;33.50;82.90;;;;;;5013329;28;19925;-69
2022/12/23 01:22:53;;;;;;;;;;;33.20;83.50;;;;;;5005313;28;20384;-68
2022/12/23 01:25:20;;;;;;;;;;;33.30;84.80;;;;;;5015448;28;19952;-68
2022/12/23 01:27:46;;;;;;;;;;;33.30;85.00;;;;;;5007530;28;19928;-67
2022/12/23 01:30:13;;;;;;;;;;;33.70;85.80;;;;;;5002507;28;19945;-68
2022/12/23 01:32:40;;;;;;;;;;;33.70;83.50;;;;;;5011660;28;19920;-67
2022/12/23 01:35:06;;;;;;;;;;;33.50;82.00;;;;;;5016469;28;19917;-68
2022/12/23 01:37:34;;;;;;;;;;;33.60;81.70;;;;;;5002532;28;19924;-67
2022/12/23 01:40:00;;;;;;;;;;;34.00;80.90;;;;;;5008593;28;19913;-69
2022/12/23 01:42:42;;;;;;;;;;;34.30;83.20;;;;;;5003145;28;19976;-68
2022/12/23 01:45:09;;;;;;;;;;;34.70;82.40;;;;;;5020010;28;20063;-69
2022/12/23 01:47:42;;;;;;;;;;;34.90;80.40;;;;;;5010597;28;20267;-69
2022/12/23 01:50:18;;;;;;;;;;;35.00;81.30;;;;;;5007583;28;19913;-68
2022/12/23 01:52:51;;;;;;;;;;;35.50;81.70;;;;;;5008692;28;19996;-68
2022/12/23 01:55:20;;;;;;;;;;;36.00;80.00;;;;;;4983368;28;19924;-67
2022/12/23 01:57:47;;;;;;;;;;;36.10;79.90;;;;;;5002414;28;20877;-68
2022/12/23 02:05:47;;;;;;;;;;;35.20;79.80;;;;;;4999866;28;19920;-71
2022/12/23 02:11:18;;;;;;;;;;;35.70;77.70;;;;;;5003707;28;19955;-69
2022/12/23 02:17:01;;;;;;;;;;;35.50;78.60;;;;;;5000431;28;20434;-69
2022/12/23 02:19:50;;;;;;;;;;;36.00;76.80;;;;;;5004834;28;20356;-67
2022/12/23 02:22:17;;;;;;;;;;;36.20;75.20;;;;;;4999784;28;19929;-70
2022/12/23 02:25:01;;;;;;;;;;;35.70;74.60;;;;;;5005631;28;20363;-69
2022/12/23 02:27:51;;;;;;;;;;;34.80;76.30;;;;;;5000709;28;19920;-69
2022/12/23 02:30:25;;;;;;;;;;;34.00;76.80;;;;;;4995516;28;20294;-69
2022/12/23 02:33:10;;;;;;;;;;;33.20;78.20;;;;;;5006673;28;19929;-70
2022/12/23 02:35:48;;;;;;;;;;;32.90;79.20;;;;;;5007227;28;19933;-70
2022/12/23 02:38:33;;;;;;;;;;;33.40;78.90;;;;;;5006744;28;19971;-68
2022/12/23 02:41:22;;;;;;;;;;;33.80;77.90;;;;;;5011561;28;19918;-69
2022/12/23 02:44:04;;;;;;;;;;;33.80;78.30;;;;;;5003175;28;19913;-69
2022/12/23 02:46:37;;;;;;;;;;;34.10;78.30;;;;;;4996607;28;19921;-70
2022/12/23 02:49:33;;;;;;;;;;;34.50;79.90;;;;;;5003326;28;19922;-69
2022/12/23 02:52:02;;;;;;;;;;;34.30;79.50;;;;;;4987264;28;19921;-69
2022/12/23 02:54:30;;;;;;;;;;;33.80;79.40;;;;;;4999997;28;20020;-68
2022/12/23 02:56:58;;;;;;;;;;;33.40;79.90;;;;;;5008512;28;20306;-68
2022/12/23 02:59:29;;;;;;;;;;;33.10;80.30;;;;;;4999815;28;19940;-68
2022/12/23 03:01:56;;;;;;;;;;;32.80;80.60;;;;;;5006849;28;19914;-68
2022/12/23 03:04:23;;;;;;;;;;;32.60;80.30;;;;;;5002364;28;19922;-69
2022/12/23 03:06:51;;;;;;;;;;;32.30;79.80;;;;;;5006417;28;19917;-69
2022/12/23 03:09:30;;;;;;;;;;;32.00;79.30;;;;;;5011347;28;19917;-68
2022/12/23 03:12:03;;;;;;;;;;;31.70;80.30;;;;;;5016456;28;19960;-70
2022/12/23 03:14:44;;;;;;;;;;;31.60;81.40;;;;;;5011713;28;20295;-68
2022/12/23 03:17:20;;;;;;;;;;;31.60;82.10;;;;;;5017441;28;19949;-71
2022/12/23 03:20:15;;;;;;;;;;;31.60;81.00;;;;;;5016963;28;19925;-69
2022/12/23 03:22:50;;;;;;;;;;;31.70;81.90;;;;;;4974715;28;19914;-69
2022/12/23 03:25:25;;;;;;;;;;;31.90;80.10;;;;;;5020852;28;19917;-70
2022/12/23 03:27:56;;;;;;;;;;;32.10;80.40;;;;;;5021970;28;19913;-68
2022/12/23 03:30:23;;;;;;;;;;;32.20;80.10;;;;;;5035118;28;19971;-69
2022/12/23 03:33:02;;;;;;;;;;;32.70;80.80;;;;;;5034087;28;19924;-69
2022/12/23 03:35:35;;;;;;;;;;;33.50;78.30;;;;;;5027815;28;20272;-70
2022/12/23 03:38:02;;;;;;;;;;;34.20;78.40;;;;;;5024422;28;20034;-69
2022/12/23 03:40:34;;;;;;;;;;;34.90;77.70;;;;;;5028318;28;19959;-70
2022/12/23 03:43:03;;;;;;;;;;;35.20;75.50;;;;;;5027474;28;20000;-68
2022/12/23 03:45:33;;;;;;;;;;;35.50;76.90;;;;;;5030824;28;19913;-70
2022/12/23 03:48:02;;;;;;;;;;;35.70;75.60;;;;;;5025451;28;19921;-70
2022/12/23 03:50:29;;;;;;;;;;;36.10;75.00;;;;;;5032512;28;19971;-71
2022/12/23 03:53:08;;;;;;;;;;;36.30;74.00;;;;;;5028641;28;19917;-70
2022/12/23 03:55:41;;;;;;;;;;;36.10;73.90;;;;;;5028748;28;19929;-70
2022/12/23 03:58:19;;;;;;;;;;;36.00;74.00;;;;;;5026742;28;19917;-70
2022/12/23 04:01:09;;;;;;;;;;;35.90;75.10;;;;;;5027559;28;19909;-70
2022/12/23 04:03:54;;;;;;;;;;;36.20;74.30;;;;;;4999923;28;20362;-69
2022/12/23 04:06:21;;;;;;;;;;;36.40;75.50;;;;;;5028882;28;19913;-68
2022/12/23 04:08:48;;;;;;;;;;;36.10;76.30;;;;;;5027892;28;20015;-69
2022/12/23 04:11:15;;;;;;;;;;;35.20;79.30;;;;;;5015328;28;19913;-69
2022/12/23 04:13:42;;;;;;;;;;;34.10;80.50;;;;;;5022218;28;20016;-69
2022/12/23 04:16:09;;;;;;;;;;;33.60;81.70;;;;;;5022193;28;20487;-68
2022/12/23 04:18:36;;;;;;;;;;;33.50;81.40;;;;;;5027312;28;19992;-71
2022/12/23 04:21:02;;;;;;;;;;;32.90;82.30;;;;;;5022462;28;19932;-69
2022/12/23 04:23:29;;;;;;;;;;;32.70;83.10;;;;;;5023552;28;19920;-70
2022/12/23 04:25:56;;;;;;;;;;;32.30;83.60;;;;;;5025644;28;19912;-71
2022/12/23 04:28:22;;;;;;;;;;;32.00;84.50;;;;;;5026283;28;19996;-69
2022/12/23 04:30:49;;;;;;;;;;;31.60;84.80;;;;;;5033028;28;20033;-71
2022/12/23 04:33:15;;;;;;;;;;;31.30;85.80;;;;;;4998427;28;20303;-71
2022/12/23 04:35:42;;;;;;;;;;;31.00;86.30;;;;;;5029069;28;19924;-69
2022/12/23 04:38:09;;;;;;;;;;;30.70;86.30;;;;;;5021505;28;19917;-70
2022/12/23 04:40:35;;;;;;;;;;;30.60;87.00;;;;;;5025039;28;20614;-68
2022/12/23 04:43:02;;;;;;;;;;;30.60;87.10;;;;;;5026987;28;19913;-70
2022/12/23 04:45:29;;;;;;;;;;;30.60;87.40;;;;;;5029321;28;19963;-70
2022/12/23 04:47:56;;;;;;;;;;;30.50;87.00;;;;;;5021356;28;19921;-70
2022/12/23 04:50:23;;;;;;;;;;;30.50;86.90;;;;;;5025340;28;19970;-70
2022/12/23 04:52:49;;;;;;;;;;;30.60;87.30;;;;;;5025608;28;19921;-71
2022/12/23 04:55:16;;;;;;;;;;;31.00;86.80;;;;;;5021253;28;19979;-70
2022/12/23 04:57:43;;;;;;;;;;;31.30;86.20;;;;;;5024390;28;20007;-70
2022/12/23 05:00:10;;;;;;;;;;;31.50;86.10;;;;;;5025783;28;20023;-68
2022/12/23 05:02:36;;;;;;;;;;;31.60;85.20;;;;;;5028489;28;19919;-70
2022/12/23 05:05:03;;;;;;;;;;;31.60;84.90;;;;;;5031119;28;19951;-71
2022/12/23 05:07:30;;;;;;;;;;;31.70;85.20;;;;;;5016279;28;19980;-69
2022/12/23 05:10:00;;;;;;;;;;;31.50;85.30;;;;;;5023413;28;19928;-69
2022/12/23 05:12:28;;;;;;;;;;;31.50;85.40;;;;;;5025920;28;19919;-69
2022/12/23 05:14:55;;;;;;;;;;;31.50;85.30;;;;;;5019326;28;19929;-70
2022/12/23 05:17:21;;;;;;;;;;;31.50;85.90;;;;;;5046328;28;19913;-71
2022/12/23 05:19:48;;;;;;;;;;;31.50;85.50;;;;;;5022974;28;19917;-69
2022/12/23 05:22:15;;;;;;;;;;;31.50;85.90;;;;;;5030586;28;20363;-73
2022/12/23 05:24:41;;;;;;;;;;;31.40;85.20;;;;;;5026128;28;19913;-68
2022/12/23 05:27:08;;;;;;;;;;;31.30;85.80;;;;;;5029489;28;19924;-70
2022/12/23 05:29:34;;;;;;;;;;;31.20;85.90;;;;;;5017906;28;19910;-70
2022/12/23 05:32:01;;;;;;;;;;;31.10;85.80;;;;;;5009620;28;19921;-69
2022/12/23 05:34:28;;;;;;;;;;;31.00;86.10;;;;;;5023248;28;19975;-70
2022/12/23 05:36:54;;;;;;;;;;;31.00;85.50;;;;;;5021686;28;20612;-67
2022/12/23 05:39:21;;;;;;;;;;;31.00;86.00;;;;;;5027257;28;19913;-67
2022/12/23 05:41:48;;;;;;;;;;;31.00;85.20;;;;;;5024023;28;20011;-67
2022/12/23 05:44:14;;;;;;;;;;;30.90;86.00;;;;;;5039635;28;19917;-67
2022/12/23 05:46:41;;;;;;;;;;;30.70;85.90;;;;;;5024982;28;19913;-69
2022/12/23 05:49:08;;;;;;;;;;;30.70;85.80;;;;;;5032891;28;20364;-70
2022/12/23 05:51:34;;;;;;;;;;;30.70;85.60;;;;;;5022353;28;20640;-69
2022/12/23 05:54:01;;;;;;;;;;;30.70;85.10;;;;;;5019075;28;19921;-69
2022/12/23 05:56:27;;;;;;;;;;;30.50;85.40;;;;;;5018799;28;19921;-72
2022/12/23 05:58:54;;;;;;;;;;;30.20;85.70;;;;;;5017856;28;19991;-74
2022/12/23 06:01:21;;;;;;;;;;;29.80;86.40;;;;;;5024796;28;20036;-68
2022/12/23 06:03:47;;;;;;;;;;;29.60;86.70;;;;;;5025727;28;20020;-70
2022/12/23 06:06:14;;;;;;;;;;;29.60;87.00;;;;;;5028553;28;19932;-69
2022/12/23 06:08:41;;;;;;;;;;;29.80;86.20;;;;;;5026281;28;20382;-71
2022/12/23 06:11:07;;;;;;;;;;;29.90;85.60;;;;;;5028400;28;19921;-72
2022/12/23 06:13:34;;;;;;;;;;;29.80;85.30;;;;;;5025603;28;19979;-68
2022/12/23 06:16:00;;;;;;;;;;;29.60;85.30;;;;;;5023862;28;19945;-71
2022/12/23 06:18:27;;;;;;;;;;;29.40;85.80;;;;;;5021412;28;20287;-69
2022/12/23 06:20:54;;;;;;;;;;;29.10;85.70;;;;;;5025818;28;20344;-68
2022/12/23 06:23:20;;;;;;;;;;;28.90;84.70;;;;;;5029155;28;20001;-68
2022/12/23 06:25:47;;;;;;;;;;;28.60;85.40;;;;;;5034692;28;20398;-67
2022/12/23 06:28:14;;;;;;;;;;;28.50;85.40;;;;;;5020801;28;19935;-68
2022/12/23 06:30:40;;;;;;;;;;;28.50;84.80;;;;;;5028827;28;20538;-70
2022/12/23 06:33:07;;;;;;;;;;;28.50;84.80;;;;;;5025442;28;19924;-71
2022/12/23 06:35:33;;;;;;;;;;;28.70;84.00;;;;;;5027587;28;19965;-71
2022/12/23 06:38:00;;;;;;;;;;;29.00;83.70;;;;;;5025044;28;19925;-72
2022/12/23 06:40:28;;;;;;;;;;;29.10;83.10;;;;;;5027248;28;20009;-70
2022/12/23 06:42:54;;;;;;;;;;;29.20;82.60;;;;;;5029962;28;20367;-71
2022/12/23 06:45:21;;;;;;;;;;;29.30;82.20;;;;;;5032542;28;19916;-72
2022/12/23 06:47:47;;;;;;;;;;;29.30;81.80;;;;;;5031568;28;20395;-67
2022/12/23 06:50:14;;;;;;;;;;;29.40;82.40;;;;;;5032167;28;19921;-67
2022/12/23 06:52:41;;;;;;;;;;;29.50;81.60;;;;;;5028635;28;20286;-66
2022/12/23 06:55:07;;;;;;;;;;;29.50;81.30;;;;;;5031878;28;20395;-67
2022/12/23 06:57:34;;;;;;;;;;;29.50;80.80;;;;;;5029198;28;19913;-69
2022/12/23 07:00:01;;;;;;;;;;;29.60;81.20;;;;;;5024888;28;19967;-68
2022/12/23 07:02:27;;;;;;;;;;;29.50;81.10;;;;;;5033985;28;19917;-68
2022/12/23 07:04:54;;;;;;;;;;;29.50;80.60;;;;;;5030884;28;20391;-68
2022/12/23 07:07:21;;;;;;;;;;;29.50;79.80;;;;;;5017341;28;20383;-71
2022/12/23 07:09:47;;;;;;;;;;;29.50;79.50;;;;;;5023117;28;19928;-67
2022/12/23 07:12:14;;;;;;;;;;;29.40;79.30;;;;;;5036311;28;19920;-69
2022/12/23 07:14:41;;;;;;;;;;;29.30;78.90;;;;;;5022373;28;19921;-67
2022/12/23 07:17:07;;;;;;;;;;;29.20;78.90;;;;;;5024722;28;19921;-68
2022/12/23 07:19:34;;;;;;;;;;;29.10;79.70;;;;;;5032471;28;20017;-69
2022/12/23 07:22:01;;;;;;;;;;;29.00;79.30;;;;;;5019322;28;19921;-70
2022/12/23 07:24:27;;;;;;;;;;;29.00;79.60;;;;;;5032787;28;19921;-69
2022/12/23 07:26:54;;;;;;;;;;;28.80;80.10;;;;;;5023990;28;20244;-69
2022/12/23 07:29:21;;;;;;;;;;;28.70;80.10;;;;;;5030285;28;19920;-68
2022/12/23 07:31:48;;;;;;;;;;;28.60;78.60;;;;;;5032375;28;20405;-69
2022/12/23 07:34:14;;;;;;;;;;;28.50;79.30;;;;;;5029788;28;19921;-69
2022/12/23 07:36:41;;;;;;;;;;;28.50;79.90;;;;;;5028706;28;20004;-66
2022/12/23 07:39:08;;;;;;;;;;;28.40;79.40;;;;;;5021994;28;20334;-68
2022/12/23 07:41:34;;;;;;;;;;;28.20;80.40;;;;;;5028371;28;19913;-68
2022/12/23 07:44:01;;;;;;;;;;;28.20;80.50;;;;;;5022588;28;19948;-68
2022/12/23 07:46:28;;;;;;;;;;;28.10;80.60;;;;;;5026729;28;19928;-68
2022/12/23 07:48:54;;;;;;;;;;;28.00;81.00;;;;;;5015135;28;20571;-71
2022/12/23 07:51:21;;;;;;;;;;;27.90;81.20;;;;;;5031783;28;19913;-69
2022/12/23 07:53:49;;;;;;;;;;;27.90;81.80;;;;;;5031964;28;20021;-69
2022/12/23 07:56:16;;;;;;;;;;;27.90;81.90;;;;;;5027669;28;19996;-70
2022/12/23 07:58:42;;;;;;;;;;;27.80;82.20;;;;;;5030387;28;20363;-71
2022/12/23 08:01:09;;;;;;;;;;;27.80;82.60;;;;;;5023115;28;19912;-72
2022/12/23 08:03:36;;;;;;;;;;;27.80;82.50;;;;;;5030287;28;19920;-70
2022/12/23 08:06:04;;;;;;;;;;;27.70;82.90;;;;;;5028588;28;19920;-67
2022/12/23 08:08:31;;;;;;;;;;;27.60;83.20;;;;;;5030925;28;19917;-67
2022/12/23 08:11:03;;;;;;;;;;;27.60;83.40;;;;;;5027268;28;20318;-69
2022/12/23 08:13:31;;;;;;;;;;;27.50;83.30;;;;;;5023701;28;19917;-70
2022/12/23 08:15:58;;;;;;;;;;;27.50;83.30;;;;;;5028551;28;19923;-69
2022/12/23 08:18:25;;;;;;;;;;;27.40;83.40;;;;;;5029960;28;19924;-69
2022/12/23 08:20:59;;;;;;;;;;;27.30;83.10;;;;;;5025244;28;19967;-70
2022/12/23 08:23:26;;;;;;;;;;;27.20;83.60;;;;;;5029156;28;19956;-69
2022/12/23 08:26:03;;;;;;;;;;;27.00;83.40;;;;;;5026363;28;19928;-69
2022/12/23 08:28:30;;;;;;;;;;;26.90;83.40;;;;;;5032273;28;19959;-70
2022/12/23 08:31:07;;;;;;;;;;;26.70;83.60;;;;;;5022194;28;20347;-70
2022/12/23 08:33:35;;;;;;;;;;;26.60;84.40;;;;;;5033536;28;19917;-69
2022/12/23 08:36:02;;;;;;;;;;;26.50;84.40;;;;;;5029669;28;19921;-69
2022/12/23 08:38:29;;;;;;;;;;;26.50;84.60;;;;;;5024205;28;19964;-69
2022/12/23 08:40:56;;;;;;;;;;;26.30;85.00;;;;;;5028470;28;19913;-69
2022/12/23 08:43:22;;;;;;;;;;;26.20;85.50;;;;;;5029661;28;19924;-69
2022/12/23 08:45:49;;;;;;;;;;;26.20;85.60;;;;;;5029105;28;19920;-69
2022/12/23 08:48:16;;;;;;;;;;;26.10;85.70;;;;;;5030815;28;20330;-69
2022/12/23 08:50:44;;;;;;;;;;;26.00;86.00;;;;;;5030902;28;19976;-68
2022/12/23 08:53:11;;;;;;;;;;;26.00;86.20;;;;;;5031869;28;19924;-70
2022/12/23 08:55:39;;;;;;;;;;;25.80;86.60;;;;;;5035278;28;19953;-69
2022/12/23 08:58:07;;;;;;;;;;;25.80;87.50;;;;;;5029318;28;19913;-70
2022/12/23 09:00:34;;;;;;;;;;;25.70;88.20;;;;;;5018075;28;20287;-69
2022/12/23 09:03:01;;;;;;;;;;;25.60;88.60;;;;;;5022694;28;19920;-70
2022/12/23 09:05:27;;;;;;;;;;;25.50;89.10;;;;;;5024701;28;20303;-69
2022/12/23 09:07:54;;;;;;;;;;;25.40;89.50;;;;;;5026151;28;20012;-70
2022/12/23 09:10:22;;;;;;;;;;;25.30;89.80;;;;;;5025810;28;19918;-70
2022/12/23 09:12:48;;;;;;;;;;;25.20;90.10;;;;;;5028524;28;19964;-70
2022/12/23 09:15:15;;;;;;;;;;;25.20;90.20;;;;;;5027867;28;19921;-69
2022/12/23 09:17:43;;;;;;;;;;;25.20;90.50;;;;;;5017620;28;19917;-69
2022/12/23 09:20:10;;;;;;;;;;;25.10;90.40;;;;;;5033402;28;20371;-69
2022/12/23 09:22:36;;;;;;;;;;;25.10;90.60;;;;;;5021571;28;19913;-68
2022/12/23 09:25:03;;;;;;;;;;;25.00;90.70;;;;;;5019173;28;19923;-70
2022/12/23 09:27:30;;;;;;;;;;;25.00;90.80;;;;;;5028007;28;19921;-70
2022/12/23 09:29:56;;;;;;;;;;;24.90;91.00;;;;;;5023780;28;19913;-70
2022/12/23 09:32:23;;;;;;;;;;;24.90;91.10;;;;;;5029639;28;19920;-70
2022/12/23 09:34:49;;;;;;;;;;;24.80;91.20;;;;;;5024535;28;20737;-69
2022/12/23 09:37:16;;;;;;;;;;;24.80;91.30;;;;;;5026929;28;19991;-70
2022/12/23 09:39:43;;;;;;;;;;;24.70;91.40;;;;;;5020933;28;19925;-68
2022/12/23 09:42:21;;;;;;;;;;;24.70;91.70;;;;;;5038713;28;19913;-70
2022/12/23 09:44:54;;;;;;;;;;;24.60;91.50;;;;;;5029714;28;19920;-69
2022/12/23 09:47:22;;;;;;;;;;;24.60;91.40;;;;;;5033137;28;20370;-70
2022/12/23 09:49:51;;;;;;;;;;;24.50;91.30;;;;;;5020144;28;20427;-71
2022/12/23 09:52:21;;;;;;;;;;;24.50;91.60;;;;;;5033250;28;19916;-70
2022/12/23 09:54:49;;;;;;;;;;;24.50;91.60;;;;;;5014542;28;19929;-70
2022/12/23 09:57:21;;;;;;;;;;;24.40;91.90;;;;;;5023030;28;19925;-71
2022/12/23 09:59:59;;;;;;;;;;;24.40;92.00;;;;;;5019589;28;20314;-69
2022/12/23 10:02:42;;;;;;;;;;;24.30;92.00;;;;;;5023941;28;19920;-70
2022/12/23 10:05:09;;;;;;;;;;;24.20;91.90;;;;;;5021667;28;19916;-71
2022/12/23 10:07:54;;;;;;;;;;;24.10;92.20;;;;;;5021794;28;19913;-68
2022/12/23 10:10:41;;;;;;;;;;;24.10;92.40;;;;;;5012444;28;19917;-68
2022/12/23 10:13:11;;;;;;;;;;;24.00;92.40;;;;;;5021959;28;19967;-69
2022/12/23 10:15:41;;;;;;;;;;;23.90;92.40;;;;;;5027455;28;20013;-69
2022/12/23 10:18:33;;;;;;;;;;;23.90;92.50;;;;;;5030807;28;19921;-71
2022/12/23 10:21:05;;;;;;;;;;;23.80;92.50;;;;;;5001156;28;20450;-70
2022/12/23 10:23:35;;;;;;;;;;;23.70;92.70;;;;;;5030301;28;19913;-70
2022/12/23 10:26:06;;;;;;;;;;;23.70;92.70;;;;;;5030322;28;19940;-69
2022/12/23 10:28:33;;;;;;;;;;;23.70;92.90;;;;;;5023942;28;19916;-70
2022/12/23 10:31:04;;;;;;;;;;;23.60;92.90;;;;;;5033894;28;19947;-70
2022/12/23 10:33:46;;;;;;;;;;;23.60;93.00;;;;;;5024068;28;20012;-70
2022/12/23 10:36:13;;;;;;;;;;;23.60;93.20;;;;;;5016110;28;19922;-69
2022/12/23 10:38:39;;;;;;;;;;;23.60;93.20;;;;;;5022462;28;19913;-71
2022/12/23 10:41:24;;;;;;;;;;;23.50;93.40;;;;;;5037277;28;19913;-71
2022/12/23 10:44:03;;;;;;;;;;;23.50;93.60;;;;;;5033185;28;19913;-71
2022/12/23 10:46:44;;;;;;;;;;;23.40;93.50;;;;;;5033179;28;19957;-69
2022/12/23 10:49:23;;;;;;;;;;;23.40;93.70;;;;;;5033176;28;20000;-70
2022/12/23 10:51:50;;;;;;;;;;;23.30;93.80;;;;;;5022242;28;20279;-69
2022/12/23 10:54:20;;;;;;;;;;;23.30;94.00;;;;;;5034733;28;19921;-70
2022/12/23 10:56:47;;;;;;;;;;;23.20;94.00;;;;;;5040826;28;19913;-70
2022/12/23 10:59:15;;;;;;;;;;;23.20;94.20;;;;;;5032587;28;19914;-69
2022/12/23 11:01:43;;;;;;;;;;;23.10;94.30;;;;;;5034314;28;20008;-70
2022/12/23 11:04:14;;;;;;;;;;;23.00;94.50;;;;;;5040209;28;19917;-70
2022/12/23 11:06:46;;;;;;;;;;;23.00;94.80;;;;;;5033316;28;19921;-71
2022/12/23 11:09:19;;;;;;;;;;;22.90;94.70;;;;;;5031608;28;19921;-71
2022/12/23 11:11:58;;;;;;;;;;;22.90;94.90;;;;;;5042413;28;20186;-69
2022/12/23 11:14:36;;;;;;;;;;;22.90;95.00;;;;;;5036907;28;20393;-70
2022/12/23 11:17:04;;;;;;;;;;;22.80;95.10;;;;;;5045571;28;19959;-71
2022/12/23 11:19:31;;;;;;;;;;;22.70;95.30;;;;;;5033517;28;19923;-71
2022/12/23 11:21:58;;;;;;;;;;;22.60;95.30;;;;;;5033977;28;20293;-69
2022/12/23 11:24:26;;;;;;;;;;;22.60;95.40;;;;;;5029474;28;19914;-70
2022/12/23 11:26:59;;;;;;;;;;;22.60;95.70;;;;;;5028415;28;19913;-70
2022/12/23 11:29:51;;;;;;;;;;;22.50;95.90;;;;;;5029789;28;19913;-69
2022/12/23 11:32:21;;;;;;;;;;;22.60;96.00;;;;;;5041269;28;20423;-70
2022/12/23 11:34:49;;;;;;;;;;;22.60;96.30;;;;;;5033574;28;19948;-69
2022/12/23 11:37:33;;;;;;;;;;;22.50;96.30;;;;;;5028258;28;20051;-68
2022/12/23 11:40:00;;;;;;;;;;;22.60;96.30;;;;;;5029376;28;20283;-70
2022/12/23 11:42:28;;;;;;;;;;;22.50;96.30;;;;;;5022427;28;19913;-70
2022/12/23 11:44:56;;;;;;;;;;;22.60;96.40;;;;;;5026591;28;19921;-70
2022/12/23 11:47:24;;;;;;;;;;;22.60;96.40;;;;;;5022505;28;19918;-70
2022/12/23 11:49:57;;;;;;;;;;;22.50;96.50;;;;;;5025176;28;19944;-71
2022/12/23 11:52:26;;;;;;;;;;;22.50;96.50;;;;;;5032581;28;20003;-70
2022/12/23 11:54:54;;;;;;;;;;;22.40;96.60;;;;;;5025142;28;20276;-71
2022/12/23 11:57:41;;;;;;;;;;;22.30;96.70;;;;;;5029794;28;20283;-71
2022/12/23 12:00:18;;;;;;;;;;;22.30;97.10;;;;;;5022150;28;20343;-70
2022/12/23 12:02:46;;;;;;;;;;;22.20;97.30;;;;;;5032193;28;19913;-70
2022/12/23 12:05:20;;;;;;;;;;;22.10;97.40;;;;;;5030116;28;19917;-70
2022/12/23 12:07:48;;;;;;;;;;;22.10;97.60;;;;;;5015361;28;20869;-69
2022/12/23 12:10:28;;;;;;;;;;;22.00;97.50;;;;;;5022786;28;19917;-69
2022/12/23 12:12:56;;;;;;;;;;;21.90;97.60;;;;;;5025720;28;19917;-71
2022/12/23 12:15:26;;;;;;;;;;;21.90;98.00;;;;;;5032169;28;19929;-69
2022/12/23 12:17:54;;;;;;;;;;;21.90;98.10;;;;;;5032883;28;19917;-69
2022/12/23 12:20:21;;;;;;;;;;;21.80;98.20;;;;;;5032664;28;19970;-70
2022/12/23 12:22:53;;;;;;;;;;;21.80;98.30;;;;;;5031492;28;19925;-68
2022/12/23 12:25:25;;;;;;;;;;;21.70;98.30;;;;;;5032378;28;19940;-69
2022/12/23 12:28:03;;;;;;;;;;;21.70;98.50;;;;;;5029087;28;19917;-70
2022/12/23 12:30:33;;;;;;;;;;;21.60;98.80;;;;;;5030428;28;20044;-70
2022/12/23 12:33:05;;;;;;;;;;;21.60;99.20;;;;;;5029273;28;19932;-70
2022/12/23 12:35:35;;;;;;;;;;;21.50;99.40;;;;;;5025746;28;20387;-70
2022/12/23 12:38:22;;;;;;;;;;;21.50;99.50;;;;;;5031030;28;20055;-69
2022/12/23 12:40:52;;;;;;;;;;;21.40;99.50;;;;;;5031674;28;19913;-69
2022/12/23 12:43:30;;;;;;;;;;;21.40;99.70;;;;;;5032263;28;20778;-70
2022/12/23 12:46:06;;;;;;;;;;;21.30;99.80;;;;;;5029223;28;19914;-70
2022/12/23 12:48:45;;;;;;;;;;;21.30;99.90;;;;;;5027928;28;20012;-69
2022/12/23 12:51:24;;;;;;;;;;;21.30;99.90;;;;;;5032124;28;20036;-71
2022/12/23 12:53:54;;;;;;;;;;;21.30;99.80;;;;;;5028536;28;19921;-70
2022/12/23 12:56:29;;;;;;;;;;;21.30;99.80;;;;;;5036421;28;20013;-70
2022/12/23 12:58:56;;;;;;;;;;;21.20;99.90;;;;;;5025849;28;19969;-69
2022/12/23 13:01:46;;;;;;;;;;;21.20;99.90;;;;;;5026390;28;19913;-70
2022/12/23 13:04:26;;;;;;;;;;;21.20;99.90;;;;;;4992686;28;20614;-70
2022/12/23 13:07:01;;;;;;;;;;;21.10;99.90;;;;;;5023849;28;19922;-70
2022/12/23 13:09:46;;;;;;;;;;;21.10;99.90;;;;;;5023106;28;19921;-70
2022/12/23 13:12:13;;;;;;;;;;;21.00;99.90;;;;;;5033743;28;19928;-70
2022/12/23 13:14:49;;;;;;;;;;;21.00;99.90;;;;;;5031499;28;20375;-70
2022/12/23 13:17:25;;;;;;;;;;;20.90;99.90;;;;;;5026579;28;19923;-70
2022/12/23 13:19:51;;;;;;;;;;;20.90;99.90;;;;;;5017671;28;19963;-70
2022/12/23 13:22:24;;;;;;;;;;;20.80;99.90;;;;;;5035357;28;20327;-70
2022/12/23 13:24:57;;;;;;;;;;;20.80;99.90;;;;;;5026374;28;20393;-70
2022/12/23 13:27:46;;;;;;;;;;;20.70;99.90;;;;;;5042391;28;19952;-70
2022/12/23 13:30:17;;;;;;;;;;;20.70;99.90;;;;;;5016197;28;20375;-70
2022/12/23 13:32:56;;;;;;;;;;;20.70;99.90;;;;;;5028504;28;19924;-70
2022/12/23 13:35:48;;;;;;;;;;;20.60;99.90;;;;;;5030753;28;19921;-70
2022/12/23 13:38:24;;;;;;;;;;;20.60;99.90;;;;;;4998272;28;19996;-69
2022/12/23 13:41:09;;;;;;;;;;;20.50;99.90;;;;;;5026363;28;19951;-69
2022/12/23 13:43:46;;;;;;;;;;;20.50;99.90;;;;;;5017834;28;20386;-69
2022/12/23 13:46:31;;;;;;;;;;;20.40;99.90;;;;;;5028957;28;19920;-69
2022/12/23 13:49:02;;;;;;;;;;;20.40;99.90;;;;;;5026395;28;20390;-70
2022/12/23 13:51:39;;;;;;;;;;;20.30;99.90;;;;;;5015959;28;19913;-71
2022/12/23 13:54:09;;;;;;;;;;;20.30;99.90;;;;;;5027104;28;19921;-70
2022/12/23 13:56:36;;;;;;;;;;;20.20;99.90;;;;;;5020406;28;19909;-69
2022/12/23 13:59:02;;;;;;;;;;;20.20;99.90;;;;;;5016536;28;20284;-71
2022/12/23 14:01:32;;;;;;;;;;;20.20;99.90;;;;;;5029530;28;19917;-71
2022/12/23 14:04:18;;;;;;;;;;;20.10;99.90;;;;;;5028346;28;19917;-69
2022/12/23 14:06:47;;;;;;;;;;;20.20;99.90;;;;;;5025251;28;19940;-69
2022/12/23 14:09:15;;;;;;;;;;;20.10;99.90;;;;;;5028828;28;19909;-69
2022/12/23 14:11:43;;;;;;;;;;;20.10;99.90;;;;;;5018497;28;19917;-71
2022/12/23 14:14:17;;;;;;;;;;;20.00;99.90;;;;;;5017286;28;19921;-70
2022/12/23 14:16:53;;;;;;;;;;;20.00;99.90;;;;;;5022551;28;19940;-70
2022/12/23 14:19:25;;;;;;;;;;;20.00;99.90;;;;;;5021023;28;19919;-71
2022/12/23 14:22:03;;;;;;;;;;;19.90;99.90;;;;;;5025645;28;19926;-70
2022/12/23 14:24:47;;;;;;;;;;;19.80;99.90;;;;;;5028078;28;19913;-71
2022/12/23 14:27:14;;;;;;;;;;;19.80;99.90;;;;;;5029571;28;20364;-71
2022/12/23 14:29:41;;;;;;;;;;;19.70;99.90;;;;;;5017365;28;19913;-71
2022/12/23 14:32:27;;;;;;;;;;;19.70;99.90;;;;;;5022724;28;19979;-71
2022/12/23 14:35:23;;;;;;;;;;;19.70;99.90;;;;;;5035503;28;20003;-69
2022/12/23 14:38:28;;;;;;;;;;;19.70;99.90;;;;;;4943209;29;19924;-72
2022/12/23 14:40:55;;;;;;;;;;;19.70;99.90;;;;;;4914100;28;19926;-70
2022/12/23 14:43:21;;;;;;;;;;;19.70;99.90;;;;;;4966669;28;19914;-70
2022/12/23 14:45:49;;;;;;;;;;;19.70;99.90;;;;;;4993960;28;20291;-71
2022/12/23 14:48:33;;;;;;;;;;;19.70;99.90;;;;;;5026996;28;19920;-70
2022/12/23 14:51:03;;;;;;;;;;;19.70;99.90;;;;;;5023031;28;20482;-71
2022/12/23 14:53:32;;;;;;;;;;;19.70;99.90;;;;;;5016694;28;19921;-70
2022/12/23 14:56:21;;;;;;;;;;;19.60;99.90;;;;;;5027483;28;20559;-70
2022/12/23 14:58:51;;;;;;;;;;;19.60;99.90;;;;;;5029656;28;19959;-71
2022/12/23 15:01:38;;;;;;;;;;;19.50;99.90;;;;;;5023876;28;19921;-70